sensor_id;sensor_type;location;lat;lon;timestamp;P1;durP1;ratioP1;P2;durP2;ratioP2
70707;SDS011;58277;47.316;18.908;2022-08-11T00:02:07;4.07;;;1.95;;
70707;SDS011;58277;47.316;18.908;2022-08-11T00:04:36;4.63;;;2.20;;
70707;SDS011;58277;47.316;18.908;2022-08-11T00:07:01;4.80;;;2.00;;
70707;SDS011;58277;47.316;18.908;2022-08-11T00:09:30;2.95;;;2.05;;
70707;SDS011;58277;47.316;18.908;2022-08-11T00:12:01;6.65;;;2.35;;
70707;SDS011;58277;47.316;18.908;2022-08-11T00:14:25;4.03;;;1.90;;
70707;SDS011;58277;47.316;18.908;2022-08-11T00:19:40;5.93;;;2.10;;
70707;SDS011;58277;47.316;18.908;2022-08-11T00:22:28;3.80;;;2.20;;
70707;SDS011;58277;47.316;18.908;2022-08-11T00:24:54;3.67;;;2.00;;
70707;SDS011;58277;47.316;18.908;2022-08-11T00:27:34;4.72;;;2.30;;
70707;SDS011;58277;47.316;18.908;2022-08-11T00:29:58;4.33;;;2.20;;
70707;SDS011;58277;47.316;18.908;2022-08-11T00:32:20;4.10;;;2.08;;
70707;SDS011;58277;47.316;18.908;2022-08-11T00:34:45;3.65;;;2.10;;
70707;SDS011;58277;47.316;18.908;2022-08-11T00:37:09;5.75;;;1.98;;
70707;SDS011;58277;47.316;18.908;2022-08-11T00:39:42;3.20;;;2.33;;
70707;SDS011;58277;47.316;18.908;2022-08-11T00:42:15;3.73;;;2.30;;
70707;SDS011;58277;47.316;18.908;2022-08-11T00:44:59;3.97;;;1.98;;
70707;SDS011;58277;47.316;18.908;2022-08-11T01:35:39;10.20;;;5.15;;
70707;SDS011;58277;47.316;18.908;2022-08-11T01:41:54;6.60;;;3.40;;
70707;SDS011;58277;47.316;18.908;2022-08-11T01:44:34;6.55;;;3.80;;
70707;SDS011;58277;47.316;18.908;2022-08-11T01:50:22;5.45;;;3.33;;
70707;SDS011;58277;47.316;18.908;2022-08-11T01:55:31;7.43;;;2.72;;
70707;SDS011;58277;47.316;18.908;2022-08-11T01:58:07;3.60;;;2.50;;
70707;SDS011;58277;47.316;18.908;2022-08-11T02:00:49;5.70;;;2.50;;
70707;SDS011;58277;47.316;18.908;2022-08-11T02:03:26;5.05;;;2.70;;
70707;SDS011;58277;47.316;18.908;2022-08-11T02:11:32;4.57;;;2.67;;
70707;SDS011;58277;47.316;18.908;2022-08-11T02:17:19;5.20;;;2.22;;
70707;SDS011;58277;47.316;18.908;2022-08-11T02:20:00;3.87;;;2.07;;
70707;SDS011;58277;47.316;18.908;2022-08-11T02:26:21;4.93;;;2.20;;
70707;SDS011;58277;47.316;18.908;2022-08-11T02:32:11;4.38;;;1.95;;
70707;SDS011;58277;47.316;18.908;2022-08-11T02:35:09;4.00;;;2.10;;
70707;SDS011;58277;47.316;18.908;2022-08-11T02:37:36;3.63;;;2.05;;
70707;SDS011;58277;47.316;18.908;2022-08-11T02:46:40;3.83;;;1.80;;
70707;SDS011;58277;47.316;18.908;2022-08-11T02:49:32;3.30;;;2.30;;
70707;SDS011;58277;47.316;18.908;2022-08-11T02:52:07;2.67;;;1.80;;
70707;SDS011;58277;47.316;18.908;2022-08-11T02:54:48;4.18;;;2.40;;
70707;SDS011;58277;47.316;18.908;2022-08-11T02:57:29;3.60;;;1.90;;
70707;SDS011;58277;47.316;18.908;2022-08-11T03:00:03;3.00;;;2.00;;
70707;SDS011;58277;47.316;18.908;2022-08-11T03:08:08;3.70;;;2.25;;
70707;SDS011;58277;47.316;18.908;2022-08-11T03:13:39;3.25;;;2.10;;
70707;SDS011;58277;47.316;18.908;2022-08-11T03:16:28;3.20;;;2.10;;
70707;SDS011;58277;47.316;18.908;2022-08-11T03:33:34;3.92;;;1.80;;
70707;SDS011;58277;47.316;18.908;2022-08-11T03:53:07;4.72;;;2.00;;
70707;SDS011;58277;47.316;18.908;2022-08-11T04:20:42;3.67;;;2.17;;
70707;SDS011;58277;47.316;18.908;2022-08-11T04:47:31;3.22;;;2.17;;
70707;SDS011;58277;47.316;18.908;2022-08-11T04:56:38;4.03;;;1.80;;
70707;SDS011;58277;47.316;18.908;2022-08-11T05:05:18;5.47;;;2.38;;
70707;SDS011;58277;47.316;18.908;2022-08-11T05:10:57;4.80;;;2.47;;
70707;SDS011;58277;47.316;18.908;2022-08-11T05:13:46;3.70;;;1.92;;
70707;SDS011;58277;47.316;18.908;2022-08-11T05:16:47;3.88;;;1.98;;
70707;SDS011;58277;47.316;18.908;2022-08-11T05:19:31;2.78;;;1.75;;
70707;SDS011;58277;47.316;18.908;2022-08-11T05:22:13;5.35;;;1.88;;
70707;SDS011;58277;47.316;18.908;2022-08-11T05:28:09;3.28;;;1.83;;
70707;SDS011;58277;47.316;18.908;2022-08-11T05:30:56;4.05;;;1.80;;
70707;SDS011;58277;47.316;18.908;2022-08-11T05:33:49;2.83;;;1.65;;
70707;SDS011;58277;47.316;18.908;2022-08-11T05:36:47;4.97;;;2.10;;
70707;SDS011;58277;47.316;18.908;2022-08-11T05:39:16;5.63;;;1.67;;
70707;SDS011;58277;47.316;18.908;2022-08-11T05:42:04;3.15;;;1.60;;
70707;SDS011;58277;47.316;18.908;2022-08-11T05:45:01;3.13;;;1.65;;
70707;SDS011;58277;47.316;18.908;2022-08-11T05:47:49;2.50;;;1.80;;
70707;SDS011;58277;47.316;18.908;2022-08-11T05:50:31;4.05;;;1.75;;
70707;SDS011;58277;47.316;18.908;2022-08-11T05:53:13;4.87;;;1.60;;
70707;SDS011;58277;47.316;18.908;2022-08-11T05:56:07;3.33;;;1.70;;
70707;SDS011;58277;47.316;18.908;2022-08-11T05:58:43;3.03;;;1.52;;
70707;SDS011;58277;47.316;18.908;2022-08-11T06:01:12;4.57;;;1.73;;
70707;SDS011;58277;47.316;18.908;2022-08-11T06:03:42;4.57;;;1.73;;
70707;SDS011;58277;47.316;18.908;2022-08-11T06:06:25;3.77;;;2.03;;
70707;SDS011;58277;47.316;18.908;2022-08-11T06:08:52;3.55;;;1.73;;
70707;SDS011;58277;47.316;18.908;2022-08-11T06:11:18;3.80;;;1.83;;
70707;SDS011;58277;47.316;18.908;2022-08-11T06:14:00;3.45;;;2.00;;
70707;SDS011;58277;47.316;18.908;2022-08-11T06:16:24;3.55;;;2.05;;
70707;SDS011;58277;47.316;18.908;2022-08-11T06:18:49;3.13;;;1.70;;
70707;SDS011;58277;47.316;18.908;2022-08-11T06:21:12;3.97;;;1.50;;
70707;SDS011;58277;47.316;18.908;2022-08-11T06:23:37;5.03;;;1.90;;
70707;SDS011;58277;47.316;18.908;2022-08-11T06:26:04;2.42;;;1.60;;
70707;SDS011;58277;47.316;18.908;2022-08-11T06:28:32;3.53;;;1.98;;
70707;SDS011;58277;47.316;18.908;2022-08-11T06:30:58;2.27;;;1.50;;
70707;SDS011;58277;47.316;18.908;2022-08-11T06:33:34;5.75;;;1.65;;
70707;SDS011;58277;47.316;18.908;2022-08-11T06:39:12;3.92;;;1.58;;
70707;SDS011;58277;47.316;18.908;2022-08-11T06:46:35;3.58;;;1.70;;
70707;SDS011;58277;47.316;18.908;2022-08-11T06:49:02;3.53;;;1.60;;
70707;SDS011;58277;47.316;18.908;2022-08-11T06:51:26;3.08;;;1.70;;
70707;SDS011;58277;47.316;18.908;2022-08-11T06:53:54;3.40;;;1.70;;
70707;SDS011;58277;47.316;18.908;2022-08-11T06:56:27;4.43;;;1.40;;
70707;SDS011;58277;47.316;18.908;2022-08-11T06:59:31;3.45;;;1.33;;
70707;SDS011;58277;47.316;18.908;2022-08-11T07:02:14;3.03;;;1.52;;
70707;SDS011;58277;47.316;18.908;2022-08-11T07:04:43;2.70;;;1.70;;
70707;SDS011;58277;47.316;18.908;2022-08-11T07:10:19;2.93;;;1.70;;
70707;SDS011;58277;47.316;18.908;2022-08-11T07:13:13;3.30;;;1.52;;
70707;SDS011;58277;47.316;18.908;2022-08-11T07:16:06;3.80;;;1.50;;
70707;SDS011;58277;47.316;18.908;2022-08-11T07:18:35;2.67;;;1.38;;
70707;SDS011;58277;47.316;18.908;2022-08-11T07:21:23;3.10;;;1.55;;
70707;SDS011;58277;47.316;18.908;2022-08-11T07:24:28;2.90;;;1.60;;
70707;SDS011;58277;47.316;18.908;2022-08-11T07:27:24;2.15;;;1.50;;
70707;SDS011;58277;47.316;18.908;2022-08-11T07:30:11;4.32;;;1.77;;
70707;SDS011;58277;47.316;18.908;2022-08-11T07:32:56;3.83;;;1.45;;
70707;SDS011;58277;47.316;18.908;2022-08-11T07:35:26;2.38;;;1.67;;
70707;SDS011;58277;47.316;18.908;2022-08-11T07:37:56;2.27;;;1.63;;
70707;SDS011;58277;47.316;18.908;2022-08-11T07:40:24;2.53;;;1.42;;
70707;SDS011;58277;47.316;18.908;2022-08-11T07:42:49;4.28;;;1.50;;
70707;SDS011;58277;47.316;18.908;2022-08-11T07:45:13;3.40;;;1.60;;
70707;SDS011;58277;47.316;18.908;2022-08-11T07:47:55;2.58;;;1.60;;
70707;SDS011;58277;47.316;18.908;2022-08-11T07:50:40;3.40;;;1.33;;
70707;SDS011;58277;47.316;18.908;2022-08-11T07:53:22;3.80;;;1.70;;
70707;SDS011;58277;47.316;18.908;2022-08-11T07:55:49;3.60;;;1.60;;
70707;SDS011;58277;47.316;18.908;2022-08-11T07:58:15;3.65;;;1.48;;
70707;SDS011;58277;47.316;18.908;2022-08-11T08:01:08;4.07;;;1.60;;
70707;SDS011;58277;47.316;18.908;2022-08-11T08:03:51;3.93;;;1.53;;
70707;SDS011;58277;47.316;18.908;2022-08-11T08:06:33;3.83;;;1.40;;
70707;SDS011;58277;47.316;18.908;2022-08-11T08:09:18;3.92;;;1.70;;
70707;SDS011;58277;47.316;18.908;2022-08-11T08:12:01;3.15;;;1.52;;
70707;SDS011;58277;47.316;18.908;2022-08-11T08:14:44;3.15;;;1.80;;
70707;SDS011;58277;47.316;18.908;2022-08-11T08:17:25;4.27;;;1.70;;
70707;SDS011;58277;47.316;18.908;2022-08-11T08:20:32;3.65;;;1.60;;
70707;SDS011;58277;47.316;18.908;2022-08-11T08:23:00;5.20;;;1.63;;
70707;SDS011;58277;47.316;18.908;2022-08-11T08:25:28;3.50;;;1.73;;
70707;SDS011;58277;47.316;18.908;2022-08-11T08:27:57;4.03;;;1.80;;
70707;SDS011;58277;47.316;18.908;2022-08-11T08:30:21;5.03;;;1.70;;
70707;SDS011;58277;47.316;18.908;2022-08-11T08:33:04;5.55;;;2.55;;
70707;SDS011;58277;47.316;18.908;2022-08-11T08:35:27;3.97;;;1.60;;
70707;SDS011;58277;47.316;18.908;2022-08-11T08:37:54;4.78;;;1.80;;
70707;SDS011;58277;47.316;18.908;2022-08-11T08:40:21;3.08;;;1.88;;
70707;SDS011;58277;47.316;18.908;2022-08-11T08:42:48;2.67;;;1.53;;
70707;SDS011;58277;47.316;18.908;2022-08-11T08:45:14;3.45;;;1.73;;
70707;SDS011;58277;47.316;18.908;2022-08-11T08:47:44;4.38;;;1.60;;
70707;SDS011;58277;47.316;18.908;2022-08-11T08:50:14;4.15;;;1.90;;
70707;SDS011;58277;47.316;18.908;2022-08-11T08:52:51;3.95;;;1.40;;
70707;SDS011;58277;47.316;18.908;2022-08-11T08:55:17;3.03;;;1.30;;
70707;SDS011;58277;47.316;18.908;2022-08-11T08:57:41;2.83;;;1.50;;
70707;SDS011;58277;47.316;18.908;2022-08-11T09:00:06;3.33;;;1.60;;
70707;SDS011;58277;47.316;18.908;2022-08-11T09:02:35;2.45;;;1.40;;
70707;SDS011;58277;47.316;18.908;2022-08-11T09:04:59;3.92;;;1.85;;
70707;SDS011;58277;47.316;18.908;2022-08-11T09:07:22;3.70;;;1.60;;
70707;SDS011;58277;47.316;18.908;2022-08-11T09:09:49;3.17;;;1.50;;
70707;SDS011;58277;47.316;18.908;2022-08-11T09:12:14;2.38;;;1.60;;
70707;SDS011;58277;47.316;18.908;2022-08-11T09:14:57;4.13;;;1.60;;
70707;SDS011;58277;47.316;18.908;2022-08-11T09:17:28;4.07;;;1.55;;
70707;SDS011;58277;47.316;18.908;2022-08-11T09:19:54;3.37;;;1.70;;
70707;SDS011;58277;47.316;18.908;2022-08-11T09:22:23;5.30;;;1.50;;
70707;SDS011;58277;47.316;18.908;2022-08-11T09:25:08;3.33;;;1.90;;
70707;SDS011;58277;47.316;18.908;2022-08-11T09:27:50;3.22;;;1.50;;
70707;SDS011;58277;47.316;18.908;2022-08-11T09:30:15;3.17;;;1.70;;
70707;SDS011;58277;47.316;18.908;2022-08-11T09:32:38;2.97;;;1.60;;
70707;SDS011;58277;47.316;18.908;2022-08-11T09:35:03;3.75;;;1.65;;
70707;SDS011;58277;47.316;18.908;2022-08-11T09:37:26;3.65;;;1.60;;
70707;SDS011;58277;47.316;18.908;2022-08-11T09:40:17;4.63;;;1.60;;
70707;SDS011;58277;47.316;18.908;2022-08-11T09:43:00;2.90;;;1.50;;
70707;SDS011;58277;47.316;18.908;2022-08-11T09:45:48;3.73;;;1.57;;
70707;SDS011;58277;47.316;18.908;2022-08-11T09:48:13;4.03;;;1.50;;
70707;SDS011;58277;47.316;18.908;2022-08-11T09:50:35;2.28;;;1.70;;
70707;SDS011;58277;47.316;18.908;2022-08-11T09:53:00;3.47;;;1.65;;
70707;SDS011;58277;47.316;18.908;2022-08-11T09:55:47;3.30;;;1.70;;
70707;SDS011;58277;47.316;18.908;2022-08-11T09:58:12;3.47;;;1.50;;
70707;SDS011;58277;47.316;18.908;2022-08-11T10:00:57;2.20;;;1.55;;
70707;SDS011;58277;47.316;18.908;2022-08-11T10:03:23;3.17;;;1.60;;
70707;SDS011;58277;47.316;18.908;2022-08-11T10:05:48;1.98;;;1.60;;
70707;SDS011;58277;47.316;18.908;2022-08-11T10:08:32;4.10;;;1.70;;
70707;SDS011;58277;47.316;18.908;2022-08-11T10:10:58;4.07;;;1.57;;
70707;SDS011;58277;47.316;18.908;2022-08-11T10:13:25;3.28;;;1.48;;
70707;SDS011;58277;47.316;18.908;2022-08-11T10:16:16;3.80;;;1.50;;
70707;SDS011;58277;47.316;18.908;2022-08-11T10:18:40;4.53;;;1.50;;
70707;SDS011;58277;47.316;18.908;2022-08-11T10:23:30;2.37;;;1.33;;
70707;SDS011;58277;47.316;18.908;2022-08-11T10:26:31;4.03;;;1.50;;
70707;SDS011;58277;47.316;18.908;2022-08-11T10:29:15;3.53;;;1.60;;
70707;SDS011;58277;47.316;18.908;2022-08-11T10:31:58;2.20;;;1.42;;
70707;SDS011;58277;47.316;18.908;2022-08-11T10:34:45;2.92;;;1.45;;
70707;SDS011;58277;47.316;18.908;2022-08-11T10:37:16;2.23;;;1.23;;
70707;SDS011;58277;47.316;18.908;2022-08-11T10:39:42;4.43;;;1.70;;
70707;SDS011;58277;47.316;18.908;2022-08-11T10:42:07;4.00;;;1.70;;
70707;SDS011;58277;47.316;18.908;2022-08-11T10:45:09;2.38;;;1.48;;
70707;SDS011;58277;47.316;18.908;2022-08-11T10:47:55;2.55;;;1.85;;
70707;SDS011;58277;47.316;18.908;2022-08-11T10:50:19;3.13;;;1.63;;
70707;SDS011;58277;47.316;18.908;2022-08-11T10:53:08;2.72;;;1.20;;
70707;SDS011;58277;47.316;18.908;2022-08-11T10:55:49;2.17;;;1.70;;
70707;SDS011;58277;47.316;18.908;2022-08-11T10:58:31;3.05;;;1.42;;
70707;SDS011;58277;47.316;18.908;2022-08-11T11:01:12;3.22;;;1.73;;
70707;SDS011;58277;47.316;18.908;2022-08-11T11:03:39;1.50;;;1.30;;
70707;SDS011;58277;47.316;18.908;2022-08-11T11:06:05;3.20;;;1.40;;
70707;SDS011;58277;47.316;18.908;2022-08-11T11:09:40;3.42;;;1.50;;
70707;SDS011;58277;47.316;18.908;2022-08-11T11:11:42;3.25;;;1.50;;
70707;SDS011;58277;47.316;18.908;2022-08-11T11:14:30;2.53;;;1.67;;
70707;SDS011;58277;47.316;18.908;2022-08-11T11:17:29;2.63;;;1.60;;
70707;SDS011;58277;47.316;18.908;2022-08-11T11:20:16;3.22;;;1.40;;
70707;SDS011;58277;47.316;18.908;2022-08-11T11:23:02;2.28;;;1.60;;
70707;SDS011;58277;47.316;18.908;2022-08-11T11:31:10;2.63;;;1.30;;
70707;SDS011;58277;47.316;18.908;2022-08-11T11:39:06;1.95;;;1.00;;
70707;SDS011;58277;47.316;18.908;2022-08-11T11:41:30;1.80;;;1.30;;
70707;SDS011;58277;47.316;18.908;2022-08-11T11:43:53;2.13;;;1.17;;
70707;SDS011;58277;47.316;18.908;2022-08-11T11:46:26;2.00;;;1.10;;
70707;SDS011;58277;47.316;18.908;2022-08-11T11:48:52;2.58;;;1.25;;
70707;SDS011;58277;47.316;18.908;2022-08-11T11:51:15;2.10;;;1.27;;
70707;SDS011;58277;47.316;18.908;2022-08-11T11:53:41;2.88;;;1.40;;
70707;SDS011;58277;47.316;18.908;2022-08-11T11:56:05;1.60;;;1.10;;
70707;SDS011;58277;47.316;18.908;2022-08-11T11:58:28;2.70;;;1.38;;
70707;SDS011;58277;47.316;18.908;2022-08-11T12:01:10;1.92;;;1.30;;
70707;SDS011;58277;47.316;18.908;2022-08-11T12:03:42;2.15;;;1.20;;
70707;SDS011;58277;47.316;18.908;2022-08-11T12:06:11;2.05;;;1.30;;
70707;SDS011;58277;47.316;18.908;2022-08-11T12:08:37;2.30;;;1.27;;
70707;SDS011;58277;47.316;18.908;2022-08-11T12:11:01;2.78;;;1.05;;
70707;SDS011;58277;47.316;18.908;2022-08-11T12:13:46;2.97;;;1.20;;
70707;SDS011;58277;47.316;18.908;2022-08-11T12:16:13;2.20;;;1.02;;
70707;SDS011;58277;47.316;18.908;2022-08-11T12:18:58;1.42;;;1.20;;
70707;SDS011;58277;47.316;18.908;2022-08-11T12:21:22;1.93;;;1.20;;
70707;SDS011;58277;47.316;18.908;2022-08-11T12:23:46;1.70;;;1.30;;
70707;SDS011;58277;47.316;18.908;2022-08-11T12:26:28;3.17;;;1.30;;
70707;SDS011;58277;47.316;18.908;2022-08-11T12:29:30;2.42;;;1.30;;
70707;SDS011;58277;47.316;18.908;2022-08-11T12:31:56;3.15;;;1.30;;
70707;SDS011;58277;47.316;18.908;2022-08-11T12:34:20;2.27;;;1.50;;
70707;SDS011;58277;47.316;18.908;2022-08-11T12:39:36;2.00;;;1.20;;
70707;SDS011;58277;47.316;18.908;2022-08-11T12:42:41;1.88;;;1.20;;
70707;SDS011;58277;47.316;18.908;2022-08-11T12:45:25;2.45;;;1.33;;
70707;SDS011;58277;47.316;18.908;2022-08-11T12:47:49;3.23;;;1.50;;
70707;SDS011;58277;47.316;18.908;2022-08-11T12:50:54;2.97;;;1.30;;
70707;SDS011;58277;47.316;18.908;2022-08-11T12:53:46;2.15;;;1.30;;
70707;SDS011;58277;47.316;18.908;2022-08-11T12:56:41;2.72;;;1.30;;
70707;SDS011;58277;47.316;18.908;2022-08-11T12:59:26;1.92;;;1.35;;
70707;SDS011;58277;47.316;18.908;2022-08-11T13:02:08;4.80;;;1.47;;
70707;SDS011;58277;47.316;18.908;2022-08-11T13:04:57;1.88;;;1.20;;
70707;SDS011;58277;47.316;18.908;2022-08-11T13:07:22;2.58;;;1.20;;
70707;SDS011;58277;47.316;18.908;2022-08-11T13:10:10;2.88;;;1.00;;
70707;SDS011;58277;47.316;18.908;2022-08-11T13:12:38;1.65;;;1.05;;
70707;SDS011;58277;47.316;18.908;2022-08-11T13:15:09;1.57;;;1.00;;
70707;SDS011;58277;47.316;18.908;2022-08-11T13:17:35;2.17;;;0.80;;
70707;SDS011;58277;47.316;18.908;2022-08-11T13:20:06;2.72;;;1.10;;
70707;SDS011;58277;47.316;18.908;2022-08-11T13:22:31;2.20;;;1.10;;
70707;SDS011;58277;47.316;18.908;2022-08-11T13:24:55;1.58;;;1.08;;
70707;SDS011;58277;47.316;18.908;2022-08-11T13:27:19;1.87;;;1.10;;
70707;SDS011;58277;47.316;18.908;2022-08-11T13:29:54;3.45;;;0.98;;
70707;SDS011;58277;47.316;18.908;2022-08-11T13:32:38;6.60;;;1.25;;
70707;SDS011;58277;47.316;18.908;2022-08-11T13:35:06;3.55;;;1.20;;
70707;SDS011;58277;47.316;18.908;2022-08-11T13:37:31;4.72;;;1.40;;
70707;SDS011;58277;47.316;18.908;2022-08-11T13:40:16;1.67;;;0.90;;
70707;SDS011;58277;47.316;18.908;2022-08-11T13:43:02;1.70;;;1.00;;
70707;SDS011;58277;47.316;18.908;2022-08-11T13:45:25;2.67;;;1.20;;
70707;SDS011;58277;47.316;18.908;2022-08-11T13:47:49;2.67;;;1.08;;
70707;SDS011;58277;47.316;18.908;2022-08-11T13:50:14;2.95;;;1.27;;
70707;SDS011;58277;47.316;18.908;2022-08-11T13:52:37;4.17;;;1.10;;
70707;SDS011;58277;47.316;18.908;2022-08-11T13:55:01;2.72;;;1.20;;
70707;SDS011;58277;47.316;18.908;2022-08-11T13:57:25;2.20;;;1.15;;
70707;SDS011;58277;47.316;18.908;2022-08-11T14:00:08;3.35;;;1.20;;
70707;SDS011;58277;47.316;18.908;2022-08-11T14:02:44;2.05;;;1.10;;
70707;SDS011;58277;47.316;18.908;2022-08-11T14:05:12;4.40;;;1.17;;
70707;SDS011;58277;47.316;18.908;2022-08-11T14:07:37;1.35;;;0.95;;
70707;SDS011;58277;47.316;18.908;2022-08-11T14:10:04;2.42;;;1.25;;
70707;SDS011;58277;47.316;18.908;2022-08-11T14:12:29;2.92;;;1.05;;
70707;SDS011;58277;47.316;18.908;2022-08-11T14:15:34;1.63;;;1.08;;
70707;SDS011;58277;47.316;18.908;2022-08-11T14:17:58;2.70;;;1.00;;
70707;SDS011;58277;47.316;18.908;2022-08-11T14:20:26;1.83;;;1.20;;
70707;SDS011;58277;47.316;18.908;2022-08-11T14:23:12;2.65;;;1.30;;
70707;SDS011;58277;47.316;18.908;2022-08-11T14:25:36;2.92;;;1.17;;
70707;SDS011;58277;47.316;18.908;2022-08-11T14:28:23;2.97;;;1.20;;
70707;SDS011;58277;47.316;18.908;2022-08-11T14:30:57;2.60;;;0.93;;
70707;SDS011;58277;47.316;18.908;2022-08-11T14:33:22;1.77;;;1.20;;
70707;SDS011;58277;47.316;18.908;2022-08-11T14:36:05;1.95;;;1.10;;
70707;SDS011;58277;47.316;18.908;2022-08-11T14:38:32;2.10;;;1.00;;
70707;SDS011;58277;47.316;18.908;2022-08-11T14:40:56;1.83;;;1.40;;
70707;SDS011;58277;47.316;18.908;2022-08-11T14:43:37;4.60;;;1.10;;
70707;SDS011;58277;47.316;18.908;2022-08-11T14:46:35;2.50;;;1.10;;
70707;SDS011;58277;47.316;18.908;2022-08-11T14:49:19;3.45;;;1.02;;
70707;SDS011;58277;47.316;18.908;2022-08-11T14:51:43;2.20;;;1.20;;
70707;SDS011;58277;47.316;18.908;2022-08-11T14:54:08;1.50;;;1.23;;
70707;SDS011;58277;47.316;18.908;2022-08-11T14:56:50;2.07;;;1.30;;
70707;SDS011;58277;47.316;18.908;2022-08-11T14:59:18;1.73;;;0.93;;
70707;SDS011;58277;47.316;18.908;2022-08-11T15:01:42;2.78;;;1.13;;
70707;SDS011;58277;47.316;18.908;2022-08-11T15:04:24;2.33;;;0.95;;
70707;SDS011;58277;47.316;18.908;2022-08-11T15:06:58;1.73;;;1.50;;
70707;SDS011;58277;47.316;18.908;2022-08-11T15:09:21;3.27;;;1.20;;
70707;SDS011;58277;47.316;18.908;2022-08-11T15:11:43;4.10;;;1.30;;
70707;SDS011;58277;47.316;18.908;2022-08-11T15:14:25;1.73;;;1.10;;
70707;SDS011;58277;47.316;18.908;2022-08-11T15:17:07;4.65;;;1.80;;
70707;SDS011;58277;47.316;18.908;2022-08-11T15:19:32;3.17;;;0.98;;
70707;SDS011;58277;47.316;18.908;2022-08-11T15:22:01;1.90;;;1.03;;
70707;SDS011;58277;47.316;18.908;2022-08-11T15:24:49;2.30;;;1.05;;
70707;SDS011;58277;47.316;18.908;2022-08-11T15:27:12;2.15;;;1.08;;
70707;SDS011;58277;47.316;18.908;2022-08-11T15:29:57;2.47;;;1.10;;
70707;SDS011;58277;47.316;18.908;2022-08-11T15:32:54;2.75;;;1.02;;
70707;SDS011;58277;47.316;18.908;2022-08-11T15:35:37;2.63;;;1.20;;
70707;SDS011;58277;47.316;18.908;2022-08-11T15:38:18;2.50;;;1.40;;
70707;SDS011;58277;47.316;18.908;2022-08-11T15:40:42;4.03;;;1.40;;
70707;SDS011;58277;47.316;18.908;2022-08-11T15:43:25;3.40;;;0.93;;
70707;SDS011;58277;47.316;18.908;2022-08-11T15:46:12;2.35;;;1.20;;
70707;SDS011;58277;47.316;18.908;2022-08-11T15:51:52;2.25;;;1.10;;
70707;SDS011;58277;47.316;18.908;2022-08-11T15:53:58;1.80;;;1.20;;
70707;SDS011;58277;47.316;18.908;2022-08-11T15:56:30;2.13;;;1.00;;
70707;SDS011;58277;47.316;18.908;2022-08-11T15:58:54;2.40;;;1.40;;
70707;SDS011;58277;47.316;18.908;2022-08-11T16:01:59;2.90;;;1.30;;
70707;SDS011;58277;47.316;18.908;2022-08-11T16:04:45;4.50;;;1.05;;
70707;SDS011;58277;47.316;18.908;2022-08-11T16:07:09;2.38;;;1.02;;
70707;SDS011;58277;47.316;18.908;2022-08-11T16:09:36;2.78;;;1.10;;
70707;SDS011;58277;47.316;18.908;2022-08-11T16:12:19;1.30;;;0.95;;
70707;SDS011;58277;47.316;18.908;2022-08-11T16:14:52;1.90;;;0.97;;
70707;SDS011;58277;47.316;18.908;2022-08-11T16:17:45;3.67;;;1.13;;
70707;SDS011;58277;47.316;18.908;2022-08-11T16:20:14;2.28;;;1.40;;
70707;SDS011;58277;47.316;18.908;2022-08-11T16:22:40;2.58;;;1.10;;
70707;SDS011;58277;47.316;18.908;2022-08-11T16:25:23;2.90;;;1.00;;
70707;SDS011;58277;47.316;18.908;2022-08-11T16:28:08;2.03;;;1.00;;
70707;SDS011;58277;47.316;18.908;2022-08-11T16:30:36;1.77;;;1.30;;
70707;SDS011;58277;47.316;18.908;2022-08-11T16:33:01;2.17;;;1.02;;
70707;SDS011;58277;47.316;18.908;2022-08-11T16:35:48;1.33;;;0.93;;
70707;SDS011;58277;47.316;18.908;2022-08-11T16:38:32;4.80;;;1.15;;
70707;SDS011;58277;47.316;18.908;2022-08-11T16:40:57;1.80;;;1.03;;
70707;SDS011;58277;47.316;18.908;2022-08-11T16:43:23;2.35;;;1.20;;
70707;SDS011;58277;47.316;18.908;2022-08-11T16:46:16;2.08;;;1.20;;
70707;SDS011;58277;47.316;18.908;2022-08-11T16:48:59;2.55;;;1.20;;
70707;SDS011;58277;47.316;18.908;2022-08-11T16:51:25;1.60;;;1.20;;
70707;SDS011;58277;47.316;18.908;2022-08-11T16:53:48;2.30;;;1.40;;
70707;SDS011;58277;47.316;18.908;2022-08-11T16:56:30;4.60;;;1.13;;
70707;SDS011;58277;47.316;18.908;2022-08-11T16:59:07;1.90;;;1.10;;
70707;SDS011;58277;47.316;18.908;2022-08-11T17:01:37;3.00;;;1.00;;
70707;SDS011;58277;47.316;18.908;2022-08-11T17:04:02;2.15;;;1.25;;
70707;SDS011;58277;47.316;18.908;2022-08-11T17:06:55;5.00;;;1.10;;
70707;SDS011;58277;47.316;18.908;2022-08-11T17:09:59;3.90;;;1.30;;
70707;SDS011;58277;47.316;18.908;2022-08-11T17:13:03;1.88;;;1.00;;
70707;SDS011;58277;47.316;18.908;2022-08-11T17:15:30;1.80;;;0.90;;
70707;SDS011;58277;47.316;18.908;2022-08-11T17:18:13;2.10;;;1.20;;
70707;SDS011;58277;47.316;18.908;2022-08-11T17:20:59;3.07;;;1.20;;
70707;SDS011;58277;47.316;18.908;2022-08-11T17:23:23;2.63;;;1.00;;
70707;SDS011;58277;47.316;18.908;2022-08-11T17:26:05;2.03;;;1.10;;
70707;SDS011;58277;47.316;18.908;2022-08-11T17:28:28;2.33;;;0.90;;
70707;SDS011;58277;47.316;18.908;2022-08-11T17:30:51;1.60;;;0.90;;
70707;SDS011;58277;47.316;18.908;2022-08-11T17:33:43;3.93;;;1.13;;
70707;SDS011;58277;47.316;18.908;2022-08-11T17:36:25;5.70;;;1.20;;
70707;SDS011;58277;47.316;18.908;2022-08-11T17:38:50;5.53;;;1.60;;
70707;SDS011;58277;47.316;18.908;2022-08-11T17:41:14;2.83;;;1.20;;
70707;SDS011;58277;47.316;18.908;2022-08-11T17:43:57;2.63;;;1.27;;
70707;SDS011;58277;47.316;18.908;2022-08-11T17:46:40;2.30;;;1.10;;
70707;SDS011;58277;47.316;18.908;2022-08-11T17:49:27;3.47;;;1.17;;
70707;SDS011;58277;47.316;18.908;2022-08-11T17:51:58;2.97;;;1.40;;
70707;SDS011;58277;47.316;18.908;2022-08-11T17:54:39;7.60;;;1.48;;
70707;SDS011;58277;47.316;18.908;2022-08-11T17:57:22;4.45;;;1.40;;
70707;SDS011;58277;47.316;18.908;2022-08-11T18:00:09;6.37;;;1.30;;
70707;SDS011;58277;47.316;18.908;2022-08-11T18:02:36;9.02;;;1.35;;
70707;SDS011;58277;47.316;18.908;2022-08-11T18:05:20;5.00;;;1.50;;
70707;SDS011;58277;47.316;18.908;2022-08-11T18:07:47;4.85;;;1.20;;
70707;SDS011;58277;47.316;18.908;2022-08-11T18:10:31;3.15;;;1.27;;
70707;SDS011;58277;47.316;18.908;2022-08-11T18:13:15;4.07;;;1.30;;
70707;SDS011;58277;47.316;18.908;2022-08-11T18:15:58;5.55;;;1.30;;
70707;SDS011;58277;47.316;18.908;2022-08-11T18:18:40;3.00;;;1.38;;
70707;SDS011;58277;47.316;18.908;2022-08-11T18:21:21;2.70;;;1.38;;
70707;SDS011;58277;47.316;18.908;2022-08-11T18:24:09;3.30;;;1.25;;
70707;SDS011;58277;47.316;18.908;2022-08-11T18:26:52;3.73;;;1.10;;
70707;SDS011;58277;47.316;18.908;2022-08-11T18:29:43;2.45;;;1.00;;
70707;SDS011;58277;47.316;18.908;2022-08-11T18:32:28;3.67;;;1.42;;
70707;SDS011;58277;47.316;18.908;2022-08-11T18:35:20;2.17;;;1.13;;
70707;SDS011;58277;47.316;18.908;2022-08-11T18:38:03;3.45;;;1.10;;
70707;SDS011;58277;47.316;18.908;2022-08-11T18:40:46;2.73;;;1.27;;
70707;SDS011;58277;47.316;18.908;2022-08-11T18:43:29;2.40;;;1.20;;
70707;SDS011;58277;47.316;18.908;2022-08-11T18:46:14;2.63;;;1.15;;
70707;SDS011;58277;47.316;18.908;2022-08-11T18:49:00;2.70;;;1.20;;
70707;SDS011;58277;47.316;18.908;2022-08-11T18:51:49;2.22;;;1.00;;
70707;SDS011;58277;47.316;18.908;2022-08-11T18:54:33;2.57;;;1.03;;
70707;SDS011;58277;47.316;18.908;2022-08-11T18:57:17;2.20;;;1.25;;
70707;SDS011;58277;47.316;18.908;2022-08-11T19:00:15;2.75;;;1.10;;
70707;SDS011;58277;47.316;18.908;2022-08-11T19:02:57;2.70;;;1.20;;
70707;SDS011;58277;47.316;18.908;2022-08-11T19:05:40;3.17;;;1.05;;
70707;SDS011;58277;47.316;18.908;2022-08-11T19:08:45;2.67;;;1.07;;